sensor_id;sensor_type;location;lat;lon;timestamp;temperature;humidity
55329;DHT22;41205;44.264;19.884;2022-07-19T00:01:41;461.20;1740.80
55329;DHT22;41205;44.264;19.884;2022-07-19T00:04:06;461.10;1766.40
55329;DHT22;41205;44.264;19.884;2022-07-19T00:06:32;461.10;1766.40
55329;DHT22;41205;44.264;19.884;2022-07-19T00:08:58;461.10;1766.40
55329;DHT22;41205;44.264;19.884;2022-07-19T00:11:23;461.00;1740.80
55329;DHT22;41205;44.264;19.884;2022-07-19T00:13:49;461.10;1740.80
55329;DHT22;41205;44.264;19.884;2022-07-19T00:16:14;461.10;1740.80
55329;DHT22;41205;44.264;19.884;2022-07-19T00:18:40;461.10;1740.80
55329;DHT22;41205;44.264;19.884;2022-07-19T00:21:06;461.10;1740.80
55329;DHT22;41205;44.264;19.884;2022-07-19T00:23:32;461.10;1740.80
55329;DHT22;41205;44.264;19.884;2022-07-19T00:25:57;461.10;1740.80
55329;DHT22;41205;44.264;19.884;2022-07-19T00:28:23;461.00;1766.40
55329;DHT22;41205;44.264;19.884;2022-07-19T00:30:48;460.90;1766.40
55329;DHT22;41205;44.264;19.884;2022-07-19T00:33:14;460.90;1766.40
55329;DHT22;41205;44.264;19.884;2022-07-19T00:35:39;460.80;1766.40
55329;DHT22;41205;44.264;19.884;2022-07-19T00:38:06;460.90;1766.40
55329;DHT22;41205;44.264;19.884;2022-07-19T00:40:32;460.80;1792.00
55329;DHT22;41205;44.264;19.884;2022-07-19T00:42:57;460.80;1792.00
55329;DHT22;41205;44.264;19.884;2022-07-19T00:45:23;460.80;1792.00
55329;DHT22;41205;44.264;19.884;2022-07-19T00:47:49;436.00;1792.00
55329;DHT22;41205;44.264;19.884;2022-07-19T00:50:14;436.00;1792.00
55329;DHT22;41205;44.264;19.884;2022-07-19T00:52:40;436.00;1792.00
55329;DHT22;41205;44.264;19.884;2022-07-19T00:55:07;436.00;1766.40
55329;DHT22;41205;44.264;19.884;2022-07-19T00:57:33;436.00;1792.00
55329;DHT22;41205;44.264;19.884;2022-07-19T00:59:59;436.00;1792.00
55329;DHT22;41205;44.264;19.884;2022-07-19T01:02:25;435.90;1792.00
55329;DHT22;41205;44.264;19.884;2022-07-19T01:04:50;435.80;1817.60
55329;DHT22;41205;44.264;19.884;2022-07-19T01:07:16;435.80;1817.60
55329;DHT22;41205;44.264;19.884;2022-07-19T01:09:42;435.80;1817.60
55329;DHT22;41205;44.264;19.884;2022-07-19T01:12:08;435.80;1817.60
55329;DHT22;41205;44.264;19.884;2022-07-19T01:14:34;435.80;1817.60
55329;DHT22;41205;44.264;19.884;2022-07-19T01:17:01;435.60;1817.60
55329;DHT22;41205;44.264;19.884;2022-07-19T01:19:27;435.60;1817.60
55329;DHT22;41205;44.264;19.884;2022-07-19T01:21:52;435.60;1817.60
55329;DHT22;41205;44.264;19.884;2022-07-19T01:24:18;435.60;1817.60
55329;DHT22;41205;44.264;19.884;2022-07-19T01:26:43;435.60;1817.60
55329;DHT22;41205;44.264;19.884;2022-07-19T01:29:14;435.60;1817.60
55329;DHT22;41205;44.264;19.884;2022-07-19T01:31:39;435.50;1843.20
55329;DHT22;41205;44.264;19.884;2022-07-19T01:34:05;435.30;1868.80
55329;DHT22;41205;44.264;19.884;2022-07-19T01:36:30;435.30;1868.80
55329;DHT22;41205;44.264;19.884;2022-07-19T01:38:56;435.30;1868.80
55329;DHT22;41205;44.264;19.884;2022-07-19T01:41:22;435.30;1868.80
55329;DHT22;41205;44.264;19.884;2022-07-19T01:43:47;435.40;1868.80
55329;DHT22;41205;44.264;19.884;2022-07-19T01:46:13;435.40;1868.80
55329;DHT22;41205;44.264;19.884;2022-07-19T01:48:38;435.50;1868.80
55329;DHT22;41205;44.264;19.884;2022-07-19T01:51:04;435.30;1868.80
55329;DHT22;41205;44.264;19.884;2022-07-19T01:53:30;435.30;1868.80
55329;DHT22;41205;44.264;19.884;2022-07-19T01:55:56;435.30;1868.80
55329;DHT22;41205;44.264;19.884;2022-07-19T01:58:21;435.30;1868.80
55329;DHT22;41205;44.264;19.884;2022-07-19T02:00:47;435.30;1868.80
55329;DHT22;41205;44.264;19.884;2022-07-19T02:03:12;435.30;1894.40
55329;DHT22;41205;44.264;19.884;2022-07-19T02:05:38;435.30;1894.40
55329;DHT22;41205;44.264;19.884;2022-07-19T02:08:03;435.20;1894.40
55329;DHT22;41205;44.264;19.884;2022-07-19T02:10:29;435.20;1894.40
55329;DHT22;41205;44.264;19.884;2022-07-19T02:12:55;410.50;1920.00
55329;DHT22;41205;44.264;19.884;2022-07-19T02:15:21;435.20;1894.40
55329;DHT22;41205;44.264;19.884;2022-07-19T02:17:46;410.50;1894.40
55329;DHT22;41205;44.264;19.884;2022-07-19T02:20:12;435.20;1894.40
55329;DHT22;41205;44.264;19.884;2022-07-19T02:22:38;410.50;1920.00
55329;DHT22;41205;44.264;19.884;2022-07-19T02:25:03;410.50;1920.00
55329;DHT22;41205;44.264;19.884;2022-07-19T02:27:29;435.20;1920.00
55329;DHT22;41205;44.264;19.884;2022-07-19T02:29:55;435.20;1894.40
55329;DHT22;41205;44.264;19.884;2022-07-19T02:32:20;410.50;1920.00
55329;DHT22;41205;44.264;19.884;2022-07-19T02:34:46;410.50;1920.00
55329;DHT22;41205;44.264;19.884;2022-07-19T02:37:11;435.20;1920.00
55329;DHT22;41205;44.264;19.884;2022-07-19T02:39:37;410.50;1945.60
55329;DHT22;41205;44.264;19.884;2022-07-19T02:42:03;410.40;1945.60
55329;DHT22;41205;44.264;19.884;2022-07-19T02:44:28;410.50;1920.00
55329;DHT22;41205;44.264;19.884;2022-07-19T02:46:54;410.40;1945.60
55329;DHT22;41205;44.264;19.884;2022-07-19T02:49:19;410.40;1920.00
55329;DHT22;41205;44.264;19.884;2022-07-19T02:51:46;410.30;1945.60
55329;DHT22;41205;44.264;19.884;2022-07-19T02:54:11;410.30;1945.60
55329;DHT22;41205;44.264;19.884;2022-07-19T02:56:37;410.40;1945.60
55329;DHT22;41205;44.264;19.884;2022-07-19T02:59:05;410.40;1945.60
55329;DHT22;41205;44.264;19.884;2022-07-19T03:01:31;410.30;1971.20
55329;DHT22;41205;44.264;19.884;2022-07-19T03:03:57;410.30;1996.80
55329;DHT22;41205;44.264;19.884;2022-07-19T03:06:22;410.30;1996.80
55329;DHT22;41205;44.264;19.884;2022-07-19T03:08:48;410.30;1996.80
55329;DHT22;41205;44.264;19.884;2022-07-19T03:11:14;410.20;1996.80
55329;DHT22;41205;44.264;19.884;2022-07-19T03:13:39;410.20;2022.40
55329;DHT22;41205;44.264;19.884;2022-07-19T03:16:05;410.30;1996.80
55329;DHT22;41205;44.264;19.884;2022-07-19T03:18:31;410.40;1996.80
55329;DHT22;41205;44.264;19.884;2022-07-19T03:20:56;410.40;1996.80
55329;DHT22;41205;44.264;19.884;2022-07-19T03:23:27;410.40;1996.80
55329;DHT22;41205;44.264;19.884;2022-07-19T03:25:52;410.50;1996.80
55329;DHT22;41205;44.264;19.884;2022-07-19T03:28:18;435.20;1996.80
55329;DHT22;41205;44.264;19.884;2022-07-19T03:30:43;410.50;2022.40
55329;DHT22;41205;44.264;19.884;2022-07-19T03:33:10;410.50;2022.40
55329;DHT22;41205;44.264;19.884;2022-07-19T03:35:36;410.40;1996.80
55329;DHT22;41205;44.264;19.884;2022-07-19T03:38:01;435.20;2022.40
55329;DHT22;41205;44.264;19.884;2022-07-19T03:40:27;435.20;2022.40
55329;DHT22;41205;44.264;19.884;2022-07-19T03:42:52;435.20;1996.80
55329;DHT22;41205;44.264;19.884;2022-07-19T03:45:18;435.30;1971.20
55329;DHT22;41205;44.264;19.884;2022-07-19T03:47:44;435.30;1996.80
55329;DHT22;41205;44.264;19.884;2022-07-19T03:50:09;435.30;2022.40
55329;DHT22;41205;44.264;19.884;2022-07-19T03:52:35;435.30;1996.80
55329;DHT22;41205;44.264;19.884;2022-07-19T03:55:00;435.30;1996.80
55329;DHT22;41205;44.264;19.884;2022-07-19T03:57:26;435.30;1996.80
55329;DHT22;41205;44.264;19.884;2022-07-19T03:59:51;435.50;1996.80
55329;DHT22;41205;44.264;19.884;2022-07-19T04:02:17;435.60;1996.80
55329;DHT22;41205;44.264;19.884;2022-07-19T04:04:43;435.60;1996.80
55329;DHT22;41205;44.264;19.884;2022-07-19T04:07:08;435.60;1996.80
55329;DHT22;41205;44.264;19.884;2022-07-19T04:09:34;435.70;1996.80
55329;DHT22;41205;44.264;19.884;2022-07-19T04:11:59;435.70;1971.20
55329;DHT22;41205;44.264;19.884;2022-07-19T04:14:25;435.80;1971.20
55329;DHT22;41205;44.264;19.884;2022-07-19T04:16:51;435.90;1971.20
55329;DHT22;41205;44.264;19.884;2022-07-19T04:19:16;435.90;1971.20
55329;DHT22;41205;44.264;19.884;2022-07-19T04:21:42;436.00;1971.20
55329;DHT22;41205;44.264;19.884;2022-07-19T04:24:07;436.00;1945.60
55329;DHT22;41205;44.264;19.884;2022-07-19T04:26:33;436.10;1945.60
55329;DHT22;41205;44.264;19.884;2022-07-19T04:28:58;460.80;1971.20
55329;DHT22;41205;44.264;19.884;2022-07-19T04:31:24;461.00;1945.60
55329;DHT22;41205;44.264;19.884;2022-07-19T04:33:49;461.00;1945.60
55329;DHT22;41205;44.264;19.884;2022-07-19T04:36:15;461.10;1945.60
55329;DHT22;41205;44.264;19.884;2022-07-19T04:38:40;461.10;1920.00
55329;DHT22;41205;44.264;19.884;2022-07-19T04:41:06;461.30;1920.00
55329;DHT22;41205;44.264;19.884;2022-07-19T04:43:32;461.40;1894.40
55329;DHT22;41205;44.264;19.884;2022-07-19T04:45:57;461.50;1894.40
55329;DHT22;41205;44.264;19.884;2022-07-19T04:48:25;512.20;1792.00
55329;DHT22;41205;44.264;19.884;2022-07-19T04:50:51;640.40;1433.60
55329;DHT22;41205;44.264;19.884;2022-07-19T04:53:16;717.30;1280.00
55329;DHT22;41205;44.264;19.884;2022-07-19T04:55:42;793.60;1177.60
55329;DHT22;41205;44.264;19.884;2022-07-19T04:58:07;844.80;1100.80
55329;DHT22;41205;44.264;19.884;2022-07-19T05:00:33;870.50;1024.00
55329;DHT22;41205;44.264;19.884;2022-07-19T05:02:59;896.10;972.80
55329;DHT22;41205;44.264;19.884;2022-07-19T05:05:24;921.70;947.20
55329;DHT22;41205;44.264;19.884;2022-07-19T05:07:50;921.80;947.20
55329;DHT22;41205;44.264;19.884;2022-07-19T05:10:15;947.20;921.60
55329;DHT22;41205;44.264;19.884;2022-07-19T05:12:41;973.00;896.00
55329;DHT22;41205;44.264;19.884;2022-07-19T05:15:07;973.10;896.00
55329;DHT22;41205;44.264;19.884;2022-07-19T05:17:33;973.70;870.40
55329;DHT22;41205;44.264;19.884;2022-07-19T05:19:59;998.50;896.00
55329;DHT22;41205;44.264;19.884;2022-07-19T05:22:24;998.80;896.00
55329;DHT22;41205;44.264;19.884;2022-07-19T05:24:51;998.90;896.00
55329;DHT22;41205;44.264;19.884;2022-07-19T05:27:17;1024.40;844.80
55329;DHT22;41205;44.264;19.884;2022-07-19T05:29:42;1049.70;844.80
55329;DHT22;41205;44.264;19.884;2022-07-19T05:32:08;1050.50;819.20
55329;DHT22;41205;44.264;19.884;2022-07-19T05:34:33;1076.10;768.00
55329;DHT22;41205;44.264;19.884;2022-07-19T05:36:59;1076.10;768.00
55329;DHT22;41205;44.264;19.884;2022-07-19T05:41:50;1101.30;793.60
55329;DHT22;41205;44.264;19.884;2022-07-19T05:44:16;1101.70;768.00
55329;DHT22;41205;44.264;19.884;2022-07-19T05:46:42;1127.00;768.00
55329;DHT22;41205;44.264;19.884;2022-07-19T05:49:07;1126.80;768.00
55329;DHT22;41205;44.264;19.884;2022-07-19T05:51:36;1126.70;768.00
55329;DHT22;41205;44.264;19.884;2022-07-19T05:54:02;1127.30;768.00
55329;DHT22;41205;44.264;19.884;2022-07-19T05:56:28;1152.40;742.40
55329;DHT22;41205;44.264;19.884;2022-07-19T05:58:53;1177.70;716.80
55329;DHT22;41205;44.264;19.884;2022-07-19T06:01:19;1178.30;691.20
55329;DHT22;41205;44.264;19.884;2022-07-19T06:03:49;1203.60;691.20
55329;DHT22;41205;44.264;19.884;2022-07-19T06:06:15;1228.80;691.20
55329;DHT22;41205;44.264;19.884;2022-07-19T06:08:41;1228.90;691.20
55329;DHT22;41205;44.264;19.884;2022-07-19T06:11:07;1204.10;691.20
55329;DHT22;41205;44.264;19.884;2022-07-19T06:15:58;1229.20;691.20
55329;DHT22;41205;44.264;19.884;2022-07-19T06:18:24;1254.60;691.20
55329;DHT22;41205;44.264;19.884;2022-07-19T06:20:50;1254.40;691.20
55329;DHT22;41205;44.264;19.884;2022-07-19T06:23:15;1229.40;691.20
55329;DHT22;41205;44.264;19.884;2022-07-19T06:25:41;1203.30;716.80
55329;DHT22;41205;44.264;19.884;2022-07-19T06:28:06;1229.20;691.20
55329;DHT22;41205;44.264;19.884;2022-07-19T06:30:32;1229.30;691.20
55329;DHT22;41205;44.264;19.884;2022-07-19T06:32:57;1229.70;665.60
55329;DHT22;41205;44.264;19.884;2022-07-19T06:35:23;1229.30;691.20
55329;DHT22;41205;44.264;19.884;2022-07-19T06:37:49;1254.80;691.20
55329;DHT22;41205;44.264;19.884;2022-07-19T06:40:15;1255.10;665.60
55329;DHT22;41205;44.264;19.884;2022-07-19T06:42:41;1255.30;640.00
55329;DHT22;41205;44.264;19.884;2022-07-19T06:45:07;1229.50;665.60
55329;DHT22;41205;44.264;19.884;2022-07-19T06:47:32;1229.20;665.60
55329;DHT22;41205;44.264;19.884;2022-07-19T06:49:58;1203.90;640.00
55329;DHT22;41205;44.264;19.884;2022-07-19T06:52:24;1254.40;665.60
55329;DHT22;41205;44.264;19.884;2022-07-19T06:54:50;1254.60;665.60
55329;DHT22;41205;44.264;19.884;2022-07-19T06:57:15;1229.20;665.60
55329;DHT22;41205;44.264;19.884;2022-07-19T06:59:41;1228.80;665.60
55329;DHT22;41205;44.264;19.884;2022-07-19T07:02:06;1254.80;640.00
55329;DHT22;41205;44.264;19.884;2022-07-19T07:04:32;1255.30;640.00
55329;DHT22;41205;44.264;19.884;2022-07-19T07:06:57;1254.40;665.60
55329;DHT22;41205;44.264;19.884;2022-07-19T07:09:23;1229.00;665.60
55329;DHT22;41205;44.264;19.884;2022-07-19T07:11:49;1178.30;640.00
55329;DHT22;41205;44.264;19.884;2022-07-19T07:14:14;1203.90;640.00
55329;DHT22;41205;44.264;19.884;2022-07-19T07:16:40;1254.40;640.00
55329;DHT22;41205;44.264;19.884;2022-07-19T07:19:05;1280.00;614.40
55329;DHT22;41205;44.264;19.884;2022-07-19T07:21:31;1305.90;588.80
55329;DHT22;41205;44.264;19.884;2022-07-19T07:24:03;1280.70;588.80
55329;DHT22;41205;44.264;19.884;2022-07-19T07:26:30;1280.40;588.80
55329;DHT22;41205;44.264;19.884;2022-07-19T07:28:55;1255.10;614.40
55329;DHT22;41205;44.264;19.884;2022-07-19T07:31:21;1306.00;588.80
55329;DHT22;41205;44.264;19.884;2022-07-19T07:33:46;1280.90;588.80
55329;DHT22;41205;44.264;19.884;2022-07-19T07:36:12;1254.60;640.00
55329;DHT22;41205;44.264;19.884;2022-07-19T07:38:38;1280.50;588.80
55329;DHT22;41205;44.264;19.884;2022-07-19T07:41:04;1280.70;588.80
55329;DHT22;41205;44.264;19.884;2022-07-19T07:43:29;1280.50;588.80
55329;DHT22;41205;44.264;19.884;2022-07-19T07:45:55;1229.30;640.00
55329;DHT22;41205;44.264;19.884;2022-07-19T07:48:20;1280.00;614.40
55329;DHT22;41205;44.264;19.884;2022-07-19T07:50:46;1228.80;665.60
55329;DHT22;41205;44.264;19.884;2022-07-19T07:53:12;1280.70;614.40
55329;DHT22;41205;44.264;19.884;2022-07-19T07:55:37;1280.70;588.80
55329;DHT22;41205;44.264;19.884;2022-07-19T07:58:09;1306.00;563.20
55329;DHT22;41205;44.264;19.884;2022-07-19T08:00:35;1228.90;665.60
55329;DHT22;41205;44.264;19.884;2022-07-19T08:03:00;1280.00;614.40
55329;DHT22;41205;44.264;19.884;2022-07-19T08:05:26;1305.90;588.80
55329;DHT22;41205;44.264;19.884;2022-07-19T08:07:52;1305.60;588.80
55329;DHT22;41205;44.264;19.884;2022-07-19T08:10:17;1280.00;614.40
55329;DHT22;41205;44.264;19.884;2022-07-19T08:12:43;1305.60;614.40
55329;DHT22;41205;44.264;19.884;2022-07-19T08:15:08;1305.60;563.20
55329;DHT22;41205;44.264;19.884;2022-07-19T08:17:34;1255.00;614.40
55329;DHT22;41205;44.264;19.884;2022-07-19T08:20:00;1254.90;614.40
55329;DHT22;41205;44.264;19.884;2022-07-19T08:22:25;1254.50;640.00
55329;DHT22;41205;44.264;19.884;2022-07-19T08:24:52;1203.30;640.00
55329;DHT22;41205;44.264;19.884;2022-07-19T08:27:18;1075.80;716.80
55329;DHT22;41205;44.264;19.884;2022-07-19T08:29:44;1024.50;742.40
55329;DHT22;41205;44.264;19.884;2022-07-19T08:32:09;973.00;819.20
55329;DHT22;41205;44.264;19.884;2022-07-19T08:34:35;947.50;819.20
55329;DHT22;41205;44.264;19.884;2022-07-19T08:37:00;947.90;844.80
55329;DHT22;41205;44.264;19.884;2022-07-19T08:39:26;922.10;844.80
55329;DHT22;41205;44.264;19.884;2022-07-19T08:41:51;922.10;870.40
55329;DHT22;41205;44.264;19.884;2022-07-19T08:44:17;921.80;870.40
55329;DHT22;41205;44.264;19.884;2022-07-19T08:46:43;896.00;870.40
55329;DHT22;41205;44.264;19.884;2022-07-19T08:49:09;870.80;921.60
55329;DHT22;41205;44.264;19.884;2022-07-19T08:51:34;870.70;896.00
55329;DHT22;41205;44.264;19.884;2022-07-19T08:54:00;845.20;947.20
55329;DHT22;41205;44.264;19.884;2022-07-19T08:56:26;820.00;972.80
55329;DHT22;41205;44.264;19.884;2022-07-19T08:59:11;845.20;947.20
55329;DHT22;41205;44.264;19.884;2022-07-19T09:01:37;845.70;947.20
55329;DHT22;41205;44.264;19.884;2022-07-19T09:09:03;845.20;947.20
55329;DHT22;41205;44.264;19.884;2022-07-19T09:11:33;844.80;947.20
55329;DHT22;41205;44.264;19.884;2022-07-19T09:14:08;845.00;947.20
55329;DHT22;41205;44.264;19.884;2022-07-19T09:16:47;845.00;947.20
55329;DHT22;41205;44.264;19.884;2022-07-19T09:19:13;845.20;972.80
55329;DHT22;41205;44.264;19.884;2022-07-19T09:21:55;845.70;947.20
55329;DHT22;41205;44.264;19.884;2022-07-19T09:24:21;845.30;947.20
55329;DHT22;41205;44.264;19.884;2022-07-19T09:26:53;845.50;921.60
55329;DHT22;41205;44.264;19.884;2022-07-19T09:29:19;845.30;947.20
55329;DHT22;41205;44.264;19.884;2022-07-19T09:32:01;845.50;947.20
55329;DHT22;41205;44.264;19.884;2022-07-19T09:34:31;844.90;972.80
55329;DHT22;41205;44.264;19.884;2022-07-19T09:37:18;845.40;947.20
55329;DHT22;41205;44.264;19.884;2022-07-19T09:39:43;845.40;947.20
55329;DHT22;41205;44.264;19.884;2022-07-19T09:42:11;820.10;947.20
55329;DHT22;41205;44.264;19.884;2022-07-19T09:44:37;845.20;972.80
55329;DHT22;41205;44.264;19.884;2022-07-19T09:47:02;845.40;998.40
55329;DHT22;41205;44.264;19.884;2022-07-19T09:49:28;819.40;998.40
55329;DHT22;41205;44.264;19.884;2022-07-19T09:51:54;819.60;1024.00
55329;DHT22;41205;44.264;19.884;2022-07-19T09:54:29;819.80;998.40
55329;DHT22;41205;44.264;19.884;2022-07-19T09:56:56;819.60;998.40
55329;DHT22;41205;44.264;19.884;2022-07-19T09:59:22;819.20;972.80
55329;DHT22;41205;44.264;19.884;2022-07-19T10:01:48;819.50;972.80
55329;DHT22;41205;44.264;19.884;2022-07-19T10:04:15;819.20;998.40
55329;DHT22;41205;44.264;19.884;2022-07-19T10:06:41;819.20;998.40
55329;DHT22;41205;44.264;19.884;2022-07-19T10:09:08;819.20;972.80
55329;DHT22;41205;44.264;19.884;2022-07-19T10:11:33;819.40;972.80
55329;DHT22;41205;44.264;19.884;2022-07-19T10:14:00;819.50;947.20
55329;DHT22;41205;44.264;19.884;2022-07-19T10:19:05;819.20;947.20
55329;DHT22;41205;44.264;19.884;2022-07-19T10:21:33;819.40;947.20
55329;DHT22;41205;44.264;19.884;2022-07-19T10:24:00;819.30;972.80
55329;DHT22;41205;44.264;19.884;2022-07-19T10:26:36;794.50;947.20
55329;DHT22;41205;44.264;19.884;2022-07-19T10:29:12;794.20;972.80
55329;DHT22;41205;44.264;19.884;2022-07-19T10:31:38;794.30;972.80
55329;DHT22;41205;44.264;19.884;2022-07-19T10:34:07;819.30;972.80
55329;DHT22;41205;44.264;19.884;2022-07-19T10:36:40;794.50;947.20
55329;DHT22;41205;44.264;19.884;2022-07-19T10:44:27;794.50;972.80
55329;DHT22;41205;44.264;19.884;2022-07-19T10:46:53;794.30;998.40
55329;DHT22;41205;44.264;19.884;2022-07-19T10:54:47;793.80;972.80
55329;DHT22;41205;44.264;19.884;2022-07-19T10:57:12;794.10;972.80
55329;DHT22;41205;44.264;19.884;2022-07-19T10:59:41;794.20;972.80
55329;DHT22;41205;44.264;19.884;2022-07-19T11:02:07;794.20;998.40
55329;DHT22;41205;44.264;19.884;2022-07-19T11:04:46;793.70;1024.00
55329;DHT22;41205;44.264;19.884;2022-07-19T11:07:16;793.90;1024.00
55329;DHT22;41205;44.264;19.884;2022-07-19T11:09:46;793.80;998.40
55329;DHT22;41205;44.264;19.884;2022-07-19T11:14:46;794.00;1024.00
55329;DHT22;41205;44.264;19.884;2022-07-19T11:17:12;793.90;998.40
55329;DHT22;41205;44.264;19.884;2022-07-19T11:19:38;793.70;1024.00
55329;DHT22;41205;44.264;19.884;2022-07-19T11:22:20;768.90;998.40
55329;DHT22;41205;44.264;19.884;2022-07-19T11:24:46;793.80;998.40
55329;DHT22;41205;44.264;19.884;2022-07-19T11:27:11;793.80;1024.00
55329;DHT22;41205;44.264;19.884;2022-07-19T11:29:56;794.20;1024.00
55329;DHT22;41205;44.264;19.884;2022-07-19T11:32:22;794.20;1024.00
55329;DHT22;41205;44.264;19.884;2022-07-19T11:35:01;794.40;998.40
55329;DHT22;41205;44.264;19.884;2022-07-19T11:37:28;794.20;998.40
55329;DHT22;41205;44.264;19.884;2022-07-19T11:39:53;794.00;998.40
55329;DHT22;41205;44.264;19.884;2022-07-19T11:42:29;794.10;998.40
55329;DHT22;41205;44.264;19.884;2022-07-19T11:44:55;794.20;972.80
55329;DHT22;41205;44.264;19.884;2022-07-19T11:47:21;793.70;998.40
55329;DHT22;41205;44.264;19.884;2022-07-19T11:49:47;794.00;998.40
55329;DHT22;41205;44.264;19.884;2022-07-19T11:52:12;794.00;998.40
55329;DHT22;41205;44.264;19.884;2022-07-19T11:54:38;793.80;972.80
55329;DHT22;41205;44.264;19.884;2022-07-19T11:57:24;794.10;998.40
55329;DHT22;41205;44.264;19.884;2022-07-19T11:59:50;793.70;998.40
55329;DHT22;41205;44.264;19.884;2022-07-19T12:02:15;793.70;998.40
55329;DHT22;41205;44.264;19.884;2022-07-19T12:04:41;794.10;1024.00
55329;DHT22;41205;44.264;19.884;2022-07-19T12:07:06;794.20;998.40
55329;DHT22;41205;44.264;19.884;2022-07-19T12:09:32;794.00;1024.00
55329;DHT22;41205;44.264;19.884;2022-07-19T12:11:59;794.10;1024.00
55329;DHT22;41205;44.264;19.884;2022-07-19T12:14:36;794.00;998.40
55329;DHT22;41205;44.264;19.884;2022-07-19T12:19:41;794.00;998.40
55329;DHT22;41205;44.264;19.884;2022-07-19T12:22:24;793.80;998.40
55329;DHT22;41205;44.264;19.884;2022-07-19T12:24:50;793.60;1024.00
55329;DHT22;41205;44.264;19.884;2022-07-19T12:27:16;794.00;1049.60
55329;DHT22;41205;44.264;19.884;2022-07-19T12:29:46;794.10;1024.00
55329;DHT22;41205;44.264;19.884;2022-07-19T12:32:13;794.00;998.40
55329;DHT22;41205;44.264;19.884;2022-07-19T12:42:37;794.00;947.20
55329;DHT22;41205;44.264;19.884;2022-07-19T12:45:03;794.00;972.80
55329;DHT22;41205;44.264;19.884;2022-07-19T12:47:29;794.00;947.20
55329;DHT22;41205;44.264;19.884;2022-07-19T12:49:55;794.00;921.60
55329;DHT22;41205;44.264;19.884;2022-07-19T12:52:21;794.10;947.20
55329;DHT22;41205;44.264;19.884;2022-07-19T12:54:46;793.70;972.80
55329;DHT22;41205;44.264;19.884;2022-07-19T12:57:12;794.10;947.20
55329;DHT22;41205;44.264;19.884;2022-07-19T12:59:37;794.30;972.80
55329;DHT22;41205;44.264;19.884;2022-07-19T13:02:06;794.50;972.80
55329;DHT22;41205;44.264;19.884;2022-07-19T13:04:32;819.30;972.80
55329;DHT22;41205;44.264;19.884;2022-07-19T13:06:58;819.50;972.80
55329;DHT22;41205;44.264;19.884;2022-07-19T13:09:23;819.50;921.60
55329;DHT22;41205;44.264;19.884;2022-07-19T13:11:49;819.60;972.80
55329;DHT22;41205;44.264;19.884;2022-07-19T13:14:14;819.60;972.80
55329;DHT22;41205;44.264;19.884;2022-07-19T13:16:40;819.40;947.20
55329;DHT22;41205;44.264;19.884;2022-07-19T13:19:06;819.30;972.80
55329;DHT22;41205;44.264;19.884;2022-07-19T13:21:31;794.50;972.80
55329;DHT22;41205;44.264;19.884;2022-07-19T13:23:57;794.30;972.80
55329;DHT22;41205;44.264;19.884;2022-07-19T13:26:23;794.30;947.20
55329;DHT22;41205;44.264;19.884;2022-07-19T13:28:48;794.20;947.20
55329;DHT22;41205;44.264;19.884;2022-07-19T13:31:14;794.50;947.20
55329;DHT22;41205;44.264;19.884;2022-07-19T13:33:40;794.50;947.20
55329;DHT22;41205;44.264;19.884;2022-07-19T13:36:05;794.30;947.20
55329;DHT22;41205;44.264;19.884;2022-07-19T13:38:31;794.40;947.20
55329;DHT22;41205;44.264;19.884;2022-07-19T13:40:56;794.30;998.40
55329;DHT22;41205;44.264;19.884;2022-07-19T13:43:22;794.50;998.40
55329;DHT22;41205;44.264;19.884;2022-07-19T13:45:47;794.30;972.80
55329;DHT22;41205;44.264;19.884;2022-07-19T13:48:13;794.20;998.40
55329;DHT22;41205;44.264;19.884;2022-07-19T13:50:39;794.30;998.40
55329;DHT22;41205;44.264;19.884;2022-07-19T13:53:04;794.10;1024.00
55329;DHT22;41205;44.264;19.884;2022-07-19T13:55:30;794.00;1024.00
55329;DHT22;41205;44.264;19.884;2022-07-19T13:57:57;794.10;1024.00
55329;DHT22;41205;44.264;19.884;2022-07-19T14:00:23;794.20;1024.00
55329;DHT22;41205;44.264;19.884;2022-07-19T14:02:49;794.40;1024.00
55329;DHT22;41205;44.264;19.884;2022-07-19T14:05:15;794.50;1049.60
55329;DHT22;41205;44.264;19.884;2022-07-19T14:07:41;794.20;998.40
55329;DHT22;41205;44.264;19.884;2022-07-19T14:10:07;794.10;1024.00
55329;DHT22;41205;44.264;19.884;2022-07-19T14:12:33;794.10;1024.00
55329;DHT22;41205;44.264;19.884;2022-07-19T14:14:58;794.20;1024.00
55329;DHT22;41205;44.264;19.884;2022-07-19T14:17:24;794.10;1024.00
55329;DHT22;41205;44.264;19.884;2022-07-19T14:19:49;794.10;1024.00
55329;DHT22;41205;44.264;19.884;2022-07-19T14:22:15;794.00;1024.00
55329;DHT22;41205;44.264;19.884;2022-07-19T14:24:41;794.00;1024.00
55329;DHT22;41205;44.264;19.884;2022-07-19T14:27:07;794.00;1024.00
55329;DHT22;41205;44.264;19.884;2022-07-19T14:29:32;794.00;1024.00
55329;DHT22;41205;44.264;19.884;2022-07-19T14:31:58;794.00;1024.00
55329;DHT22;41205;44.264;19.884;2022-07-19T14:34:24;794.00;1049.60
55329;DHT22;41205;44.264;19.884;2022-07-19T14:36:49;793.80;1024.00
55329;DHT22;41205;44.264;19.884;2022-07-19T14:39:15;794.00;1049.60
55329;DHT22;41205;44.264;19.884;2022-07-19T14:41:40;793.80;1024.00
55329;DHT22;41205;44.264;19.884;2022-07-19T14:44:06;794.00;1049.60
55329;DHT22;41205;44.264;19.884;2022-07-19T14:46:31;794.00;1049.60
55329;DHT22;41205;44.264;19.884;2022-07-19T14:48:57;794.00;1024.00
55329;DHT22;41205;44.264;19.884;2022-07-19T14:51:22;794.10;1024.00
55329;DHT22;41205;44.264;19.884;2022-07-19T14:53:48;794.00;1024.00
55329;DHT22;41205;44.264;19.884;2022-07-19T14:56:14;794.00;1024.00
55329;DHT22;41205;44.264;19.884;2022-07-19T14:58:39;793.80;1024.00
55329;DHT22;41205;44.264;19.884;2022-07-19T15:01:07;793.70;1049.60
55329;DHT22;41205;44.264;19.884;2022-07-19T15:03:33;794.00;1049.60
55329;DHT22;41205;44.264;19.884;2022-07-19T15:05:58;793.60;1024.00
55329;DHT22;41205;44.264;19.884;2022-07-19T15:08:26;794.00;1024.00
55329;DHT22;41205;44.264;19.884;2022-07-19T15:10:52;794.00;1024.00